sensor_id;sensor_type;location;lat;lon;timestamp;P1;durP1;ratioP1;P2;durP2;ratioP2
80681;SDS011;70045;40.200;44.582;2024-01-30T00:01:41;43.58;;;19.20;;
80681;SDS011;70045;40.200;44.582;2024-01-30T00:04:06;43.22;;;16.75;;
80681;SDS011;70045;40.200;44.582;2024-01-30T00:06:32;45.22;;;19.00;;
80681;SDS011;70045;40.200;44.582;2024-01-30T00:08:57;45.33;;;19.38;;
80681;SDS011;70045;40.200;44.582;2024-01-30T00:11:25;44.55;;;19.30;;
80681;SDS011;70045;40.200;44.582;2024-01-30T00:13:54;42.75;;;19.42;;
80681;SDS011;70045;40.200;44.582;2024-01-30T00:16:23;50.70;;;20.58;;
80681;SDS011;70045;40.200;44.582;2024-01-30T00:18:49;50.00;;;20.35;;
80681;SDS011;70045;40.200;44.582;2024-01-30T00:21:14;55.22;;;21.33;;
80681;SDS011;70045;40.200;44.582;2024-01-30T00:23:43;50.33;;;20.17;;
80681;SDS011;70045;40.200;44.582;2024-01-30T00:26:09;46.17;;;22.10;;
80681;SDS011;70045;40.200;44.582;2024-01-30T00:28:35;58.67;;;22.85;;
80681;SDS011;70045;40.200;44.582;2024-01-30T00:31:00;49.08;;;21.08;;
80681;SDS011;70045;40.200;44.582;2024-01-30T00:33:26;52.38;;;23.13;;
80681;SDS011;70045;40.200;44.582;2024-01-30T00:35:54;56.25;;;22.45;;
80681;SDS011;70045;40.200;44.582;2024-01-30T00:38:19;63.30;;;24.67;;
80681;SDS011;70045;40.200;44.582;2024-01-30T00:40:45;59.80;;;22.58;;
80681;SDS011;70045;40.200;44.582;2024-01-30T00:43:10;58.10;;;23.50;;
80681;SDS011;70045;40.200;44.582;2024-01-30T00:45:35;53.65;;;20.88;;
80681;SDS011;70045;40.200;44.582;2024-01-30T00:48:04;49.67;;;20.05;;
80681;SDS011;70045;40.200;44.582;2024-01-30T00:50:30;57.00;;;19.40;;
80681;SDS011;70045;40.200;44.582;2024-01-30T00:52:55;53.15;;;20.02;;
80681;SDS011;70045;40.200;44.582;2024-01-30T00:55:21;51.67;;;18.95;;
80681;SDS011;70045;40.200;44.582;2024-01-30T00:57:46;53.13;;;19.90;;
80681;SDS011;70045;40.200;44.582;2024-01-30T01:00:15;53.05;;;19.05;;
80681;SDS011;70045;40.200;44.582;2024-01-30T01:02:41;57.15;;;21.88;;
80681;SDS011;70045;40.200;44.582;2024-01-30T01:05:06;54.35;;;21.38;;
80681;SDS011;70045;40.200;44.582;2024-01-30T01:07:32;47.88;;;19.38;;
80681;SDS011;70045;40.200;44.582;2024-01-30T01:09:57;55.85;;;21.95;;
80681;SDS011;70045;40.200;44.582;2024-01-30T01:12:26;50.85;;;20.08;;
80681;SDS011;70045;40.200;44.582;2024-01-30T01:14:51;50.60;;;19.83;;
80681;SDS011;70045;40.200;44.582;2024-01-30T01:17:17;50.03;;;19.67;;
80681;SDS011;70045;40.200;44.582;2024-01-30T01:19:42;53.28;;;19.85;;
80681;SDS011;70045;40.200;44.582;2024-01-30T01:22:08;56.30;;;20.52;;
80681;SDS011;70045;40.200;44.582;2024-01-30T01:24:37;58.10;;;21.60;;
80681;SDS011;70045;40.200;44.582;2024-01-30T01:27:02;57.17;;;20.15;;
80681;SDS011;70045;40.200;44.582;2024-01-30T01:29:28;60.38;;;22.13;;
80681;SDS011;70045;40.200;44.582;2024-01-30T01:31:57;56.17;;;21.67;;
80681;SDS011;70045;40.200;44.582;2024-01-30T01:34:23;49.58;;;19.90;;
80681;SDS011;70045;40.200;44.582;2024-01-30T01:36:52;52.92;;;20.85;;
80681;SDS011;70045;40.200;44.582;2024-01-30T01:39:18;53.00;;;19.80;;
80681;SDS011;70045;40.200;44.582;2024-01-30T01:41:43;57.28;;;21.20;;
80681;SDS011;70045;40.200;44.582;2024-01-30T01:44:09;50.50;;;19.10;;
80681;SDS011;70045;40.200;44.582;2024-01-30T01:46:34;53.30;;;20.70;;
80681;SDS011;70045;40.200;44.582;2024-01-30T01:49:03;52.17;;;21.35;;
80681;SDS011;70045;40.200;44.582;2024-01-30T01:51:30;52.83;;;21.48;;
80681;SDS011;70045;40.200;44.582;2024-01-30T01:53:58;57.97;;;21.70;;
80681;SDS011;70045;40.200;44.582;2024-01-30T01:56:28;51.63;;;21.50;;
80681;SDS011;70045;40.200;44.582;2024-01-30T01:58:55;61.47;;;22.98;;
80681;SDS011;70045;40.200;44.582;2024-01-30T02:01:24;54.70;;;21.30;;
80681;SDS011;70045;40.200;44.582;2024-01-30T02:03:51;55.50;;;20.83;;
80681;SDS011;70045;40.200;44.582;2024-01-30T02:06:16;58.13;;;22.08;;
80681;SDS011;70045;40.200;44.582;2024-01-30T02:08:42;54.40;;;21.40;;
80681;SDS011;70045;40.200;44.582;2024-01-30T02:11:08;59.15;;;21.48;;
80681;SDS011;70045;40.200;44.582;2024-01-30T02:13:37;51.75;;;20.17;;
80681;SDS011;70045;40.200;44.582;2024-01-30T02:16:03;52.00;;;20.73;;
80681;SDS011;70045;40.200;44.582;2024-01-30T02:18:28;54.50;;;20.05;;
80681;SDS011;70045;40.200;44.582;2024-01-30T02:20:55;48.00;;;18.30;;
80681;SDS011;70045;40.200;44.582;2024-01-30T02:23:23;43.63;;;19.02;;
80681;SDS011;70045;40.200;44.582;2024-01-30T02:25:52;44.80;;;16.90;;
80681;SDS011;70045;40.200;44.582;2024-01-30T02:28:17;48.88;;;18.83;;
80681;SDS011;70045;40.200;44.582;2024-01-30T02:30:43;47.90;;;18.13;;
80681;SDS011;70045;40.200;44.582;2024-01-30T02:33:09;43.78;;;18.77;;
80681;SDS011;70045;40.200;44.582;2024-01-30T02:35:34;45.78;;;17.77;;
80681;SDS011;70045;40.200;44.582;2024-01-30T02:38:03;42.08;;;17.75;;
80681;SDS011;70045;40.200;44.582;2024-01-30T02:40:28;44.38;;;18.40;;
80681;SDS011;70045;40.200;44.582;2024-01-30T02:42:54;49.72;;;20.05;;
80681;SDS011;70045;40.200;44.582;2024-01-30T02:45:19;43.88;;;18.35;;
80681;SDS011;70045;40.200;44.582;2024-01-30T02:47:45;48.25;;;18.60;;
80681;SDS011;70045;40.200;44.582;2024-01-30T02:50:15;49.55;;;19.52;;
80681;SDS011;70045;40.200;44.582;2024-01-30T02:52:41;51.83;;;19.02;;
80681;SDS011;70045;40.200;44.582;2024-01-30T02:55:07;47.85;;;18.05;;
80681;SDS011;70045;40.200;44.582;2024-01-30T02:57:32;45.75;;;19.08;;
80681;SDS011;70045;40.200;44.582;2024-01-30T02:59:58;48.55;;;17.98;;
80681;SDS011;70045;40.200;44.582;2024-01-30T03:02:27;50.83;;;18.45;;
80681;SDS011;70045;40.200;44.582;2024-01-30T03:04:52;45.63;;;18.08;;
80681;SDS011;70045;40.200;44.582;2024-01-30T03:07:18;52.13;;;20.23;;
80681;SDS011;70045;40.200;44.582;2024-01-30T03:09:43;46.90;;;19.42;;
80681;SDS011;70045;40.200;44.582;2024-01-30T03:12:09;46.50;;;19.02;;
80681;SDS011;70045;40.200;44.582;2024-01-30T03:14:38;48.40;;;18.98;;
80681;SDS011;70045;40.200;44.582;2024-01-30T03:17:03;47.55;;;19.40;;
80681;SDS011;70045;40.200;44.582;2024-01-30T03:19:29;45.10;;;18.52;;
80681;SDS011;70045;40.200;44.582;2024-01-30T03:21:54;52.80;;;21.63;;
80681;SDS011;70045;40.200;44.582;2024-01-30T03:24:20;47.17;;;18.90;;
80681;SDS011;70045;40.200;44.582;2024-01-30T03:26:49;45.80;;;18.42;;
80681;SDS011;70045;40.200;44.582;2024-01-30T03:29:14;51.05;;;19.40;;
80681;SDS011;70045;40.200;44.582;2024-01-30T03:31:39;45.55;;;18.73;;
80681;SDS011;70045;40.200;44.582;2024-01-30T03:34:05;35.33;;;15.38;;
80681;SDS011;70045;40.200;44.582;2024-01-30T03:36:30;37.67;;;14.35;;
80681;SDS011;70045;40.200;44.582;2024-01-30T03:38:58;29.85;;;12.85;;
80681;SDS011;70045;40.200;44.582;2024-01-30T03:41:24;34.53;;;13.75;;
80681;SDS011;70045;40.200;44.582;2024-01-30T03:43:49;35.08;;;14.20;;
80681;SDS011;70045;40.200;44.582;2024-01-30T03:46:15;40.97;;;16.25;;
80681;SDS011;70045;40.200;44.582;2024-01-30T03:48:41;39.83;;;16.42;;
80681;SDS011;70045;40.200;44.582;2024-01-30T03:51:10;44.08;;;16.55;;
80681;SDS011;70045;40.200;44.582;2024-01-30T03:53:35;47.90;;;17.83;;
80681;SDS011;70045;40.200;44.582;2024-01-30T03:56:01;48.45;;;18.75;;
80681;SDS011;70045;40.200;44.582;2024-01-30T03:58:26;56.13;;;21.27;;
80681;SDS011;70045;40.200;44.582;2024-01-30T04:00:51;55.97;;;21.02;;
80681;SDS011;70045;40.200;44.582;2024-01-30T04:03:20;52.70;;;21.77;;
80681;SDS011;70045;40.200;44.582;2024-01-30T04:05:46;59.88;;;22.25;;
80681;SDS011;70045;40.200;44.582;2024-01-30T04:08:11;62.20;;;22.65;;
80681;SDS011;70045;40.200;44.582;2024-01-30T04:10:37;56.65;;;21.75;;
80681;SDS011;70045;40.200;44.582;2024-01-30T04:13:02;59.80;;;22.52;;
80681;SDS011;70045;40.200;44.582;2024-01-30T04:15:31;57.70;;;22.55;;
80681;SDS011;70045;40.200;44.582;2024-01-30T04:17:59;54.60;;;21.25;;
80681;SDS011;70045;40.200;44.582;2024-01-30T04:20:24;52.50;;;22.13;;
80681;SDS011;70045;40.200;44.582;2024-01-30T04:22:50;58.40;;;21.38;;
80681;SDS011;70045;40.200;44.582;2024-01-30T04:25:15;53.72;;;21.83;;
80681;SDS011;70045;40.200;44.582;2024-01-30T04:27:43;56.53;;;21.45;;
80681;SDS011;70045;40.200;44.582;2024-01-30T04:30:09;54.90;;;21.13;;
80681;SDS011;70045;40.200;44.582;2024-01-30T04:32:35;58.38;;;23.63;;
80681;SDS011;70045;40.200;44.582;2024-01-30T04:35:01;55.97;;;21.50;;
80681;SDS011;70045;40.200;44.582;2024-01-30T04:37:26;64.30;;;22.33;;
80681;SDS011;70045;40.200;44.582;2024-01-30T04:39:56;61.03;;;25.73;;
80681;SDS011;70045;40.200;44.582;2024-01-30T04:42:21;66.13;;;24.70;;
80681;SDS011;70045;40.200;44.582;2024-01-30T04:44:47;56.00;;;21.25;;
80681;SDS011;70045;40.200;44.582;2024-01-30T04:47:12;51.08;;;18.88;;
80681;SDS011;70045;40.200;44.582;2024-01-30T04:49:38;48.58;;;18.38;;
80681;SDS011;70045;40.200;44.582;2024-01-30T04:52:07;37.63;;;15.60;;
80681;SDS011;70045;40.200;44.582;2024-01-30T04:54:33;36.22;;;15.95;;
80681;SDS011;70045;40.200;44.582;2024-01-30T04:57:00;36.90;;;15.30;;
80681;SDS011;70045;40.200;44.582;2024-01-30T04:59:25;39.15;;;15.93;;
80681;SDS011;70045;40.200;44.582;2024-01-30T05:01:51;40.13;;;15.32;;
80681;SDS011;70045;40.200;44.582;2024-01-30T05:04:19;41.28;;;17.05;;
80681;SDS011;70045;40.200;44.582;2024-01-30T05:06:44;38.35;;;15.10;;
80681;SDS011;70045;40.200;44.582;2024-01-30T05:09:10;39.30;;;16.85;;
80681;SDS011;70045;40.200;44.582;2024-01-30T05:11:39;39.38;;;16.83;;
80681;SDS011;70045;40.200;44.582;2024-01-30T05:14:05;32.65;;;15.10;;
80681;SDS011;70045;40.200;44.582;2024-01-30T05:16:35;38.67;;;15.13;;
80681;SDS011;70045;40.200;44.582;2024-01-30T05:19:00;39.72;;;15.85;;
80681;SDS011;70045;40.200;44.582;2024-01-30T05:21:26;46.83;;;18.02;;
80681;SDS011;70045;40.200;44.582;2024-01-30T05:23:51;41.53;;;16.65;;
80681;SDS011;70045;40.200;44.582;2024-01-30T05:26:17;41.53;;;17.30;;
80681;SDS011;70045;40.200;44.582;2024-01-30T05:28:45;43.90;;;18.27;;
80681;SDS011;70045;40.200;44.582;2024-01-30T05:31:10;40.67;;;17.58;;
80681;SDS011;70045;40.200;44.582;2024-01-30T05:33:36;42.17;;;17.25;;
80681;SDS011;70045;40.200;44.582;2024-01-30T05:36:01;44.00;;;17.70;;
80681;SDS011;70045;40.200;44.582;2024-01-30T05:38:27;43.17;;;17.27;;
80681;SDS011;70045;40.200;44.582;2024-01-30T05:40:56;52.50;;;21.02;;
80681;SDS011;70045;40.200;44.582;2024-01-30T05:43:22;43.70;;;17.98;;
80681;SDS011;70045;40.200;44.582;2024-01-30T05:45:47;45.28;;;17.42;;
80681;SDS011;70045;40.200;44.582;2024-01-30T05:48:12;47.60;;;19.90;;
80681;SDS011;70045;40.200;44.582;2024-01-30T05:50:38;44.05;;;18.33;;
80681;SDS011;70045;40.200;44.582;2024-01-30T05:53:07;49.80;;;20.85;;
80681;SDS011;70045;40.200;44.582;2024-01-30T05:55:32;45.05;;;18.13;;
80681;SDS011;70045;40.200;44.582;2024-01-30T05:57:58;41.10;;;18.52;;
80681;SDS011;70045;40.200;44.582;2024-01-30T06:00:23;47.92;;;21.27;;
80681;SDS011;70045;40.200;44.582;2024-01-30T06:02:49;46.15;;;19.70;;
80681;SDS011;70045;40.200;44.582;2024-01-30T06:05:17;52.92;;;24.35;;
80681;SDS011;70045;40.200;44.582;2024-01-30T06:07:42;53.67;;;21.92;;
80681;SDS011;70045;40.200;44.582;2024-01-30T06:10:08;51.70;;;21.40;;
80681;SDS011;70045;40.200;44.582;2024-01-30T06:12:37;54.75;;;23.67;;
80681;SDS011;70045;40.200;44.582;2024-01-30T06:15:03;55.10;;;23.10;;
80681;SDS011;70045;40.200;44.582;2024-01-30T06:17:32;55.92;;;22.73;;
80681;SDS011;70045;40.200;44.582;2024-01-30T06:19:57;57.35;;;22.80;;
80681;SDS011;70045;40.200;44.582;2024-01-30T06:22:23;63.20;;;23.95;;
80681;SDS011;70045;40.200;44.582;2024-01-30T06:24:48;54.42;;;23.10;;
80681;SDS011;70045;40.200;44.582;2024-01-30T06:27:14;53.47;;;24.25;;
80681;SDS011;70045;40.200;44.582;2024-01-30T06:29:43;51.78;;;23.98;;
80681;SDS011;70045;40.200;44.582;2024-01-30T06:32:09;58.92;;;24.30;;
80681;SDS011;70045;40.200;44.582;2024-01-30T06:34:35;52.33;;;23.70;;
80681;SDS011;70045;40.200;44.582;2024-01-30T06:37:00;63.95;;;26.42;;
80681;SDS011;70045;40.200;44.582;2024-01-30T06:39:26;61.20;;;24.23;;
80681;SDS011;70045;40.200;44.582;2024-01-30T06:41:55;57.75;;;24.50;;
80681;SDS011;70045;40.200;44.582;2024-01-30T06:44:21;58.58;;;23.48;;
80681;SDS011;70045;40.200;44.582;2024-01-30T06:46:46;50.03;;;22.20;;
80681;SDS011;70045;40.200;44.582;2024-01-30T06:49:11;49.67;;;22.17;;
80681;SDS011;70045;40.200;44.582;2024-01-30T06:51:37;53.22;;;22.80;;
80681;SDS011;70045;40.200;44.582;2024-01-30T06:54:06;63.20;;;26.67;;
80681;SDS011;70045;40.200;44.582;2024-01-30T06:56:31;59.85;;;25.85;;
80681;SDS011;70045;40.200;44.582;2024-01-30T06:58:57;54.95;;;23.45;;
80681;SDS011;70045;40.200;44.582;2024-01-30T07:01:27;54.20;;;24.98;;
80681;SDS011;70045;40.200;44.582;2024-01-30T07:03:53;57.30;;;24.60;;
80681;SDS011;70045;40.200;44.582;2024-01-30T07:06:22;60.30;;;24.33;;
80681;SDS011;70045;40.200;44.582;2024-01-30T07:08:48;47.95;;;21.38;;
80681;SDS011;70045;40.200;44.582;2024-01-30T07:11:21;45.95;;;20.55;;
80681;SDS011;70045;40.200;44.582;2024-01-30T07:13:47;50.55;;;22.33;;
80681;SDS011;70045;40.200;44.582;2024-01-30T07:16:13;55.22;;;23.77;;
80681;SDS011;70045;40.200;44.582;2024-01-30T07:18:41;58.33;;;26.73;;
80681;SDS011;70045;40.200;44.582;2024-01-30T07:21:08;58.30;;;24.95;;
80681;SDS011;70045;40.200;44.582;2024-01-30T07:23:33;53.97;;;24.25;;
80681;SDS011;70045;40.200;44.582;2024-01-30T07:25:59;56.97;;;24.10;;
80681;SDS011;70045;40.200;44.582;2024-01-30T07:28:24;56.55;;;23.92;;
80681;SDS011;70045;40.200;44.582;2024-01-30T07:30:53;52.40;;;24.17;;
80681;SDS011;70045;40.200;44.582;2024-01-30T07:33:19;64.18;;;25.25;;
80681;SDS011;70045;40.200;44.582;2024-01-30T07:35:45;61.60;;;25.95;;
80681;SDS011;70045;40.200;44.582;2024-01-30T07:38:11;61.63;;;26.65;;
80681;SDS011;70045;40.200;44.582;2024-01-30T07:40:36;60.25;;;26.67;;
80681;SDS011;70045;40.200;44.582;2024-01-30T07:43:05;66.40;;;27.20;;
80681;SDS011;70045;40.200;44.582;2024-01-30T07:45:30;64.38;;;26.42;;
80681;SDS011;70045;40.200;44.582;2024-01-30T07:47:56;62.47;;;26.70;;
80681;SDS011;70045;40.200;44.582;2024-01-30T07:50:21;70.82;;;27.30;;
80681;SDS011;70045;40.200;44.582;2024-01-30T07:52:47;67.75;;;28.48;;
80681;SDS011;70045;40.200;44.582;2024-01-30T07:55:15;66.65;;;31.42;;
80681;SDS011;70045;40.200;44.582;2024-01-30T07:57:40;69.53;;;28.08;;
80681;SDS011;70045;40.200;44.582;2024-01-30T08:00:06;59.75;;;27.60;;
80681;SDS011;70045;40.200;44.582;2024-01-30T08:02:32;77.47;;;30.45;;
80681;SDS011;70045;40.200;44.582;2024-01-30T08:04:57;82.03;;;31.33;;
80681;SDS011;70045;40.200;44.582;2024-01-30T08:07:26;77.95;;;33.08;;
80681;SDS011;70045;40.200;44.582;2024-01-30T08:09:52;76.63;;;28.30;;
80681;SDS011;70045;40.200;44.582;2024-01-30T08:12:17;75.30;;;30.52;;
80681;SDS011;70045;40.200;44.582;2024-01-30T08:14:42;70.40;;;29.48;;
80681;SDS011;70045;40.200;44.582;2024-01-30T08:17:08;79.13;;;30.50;;
80681;SDS011;70045;40.200;44.582;2024-01-30T08:19:37;70.28;;;28.85;;
80681;SDS011;70045;40.200;44.582;2024-01-30T08:22:02;75.70;;;30.58;;
80681;SDS011;70045;40.200;44.582;2024-01-30T08:24:28;77.95;;;31.05;;
80681;SDS011;70045;40.200;44.582;2024-01-30T08:26:53;73.90;;;30.38;;
80681;SDS011;70045;40.200;44.582;2024-01-30T08:29:19;76.47;;;30.23;;
80681;SDS011;70045;40.200;44.582;2024-01-30T08:31:48;74.20;;;30.42;;
80681;SDS011;70045;40.200;44.582;2024-01-30T08:34:13;70.40;;;29.55;;
80681;SDS011;70045;40.200;44.582;2024-01-30T08:36:39;72.32;;;29.85;;
80681;SDS011;70045;40.200;44.582;2024-01-30T08:39:04;66.53;;;28.08;;
80681;SDS011;70045;40.200;44.582;2024-01-30T08:41:29;70.68;;;31.95;;
80681;SDS011;70045;40.200;44.582;2024-01-30T08:43:58;78.68;;;34.13;;
80681;SDS011;70045;40.200;44.582;2024-01-30T08:46:23;85.07;;;37.17;;
80681;SDS011;70045;40.200;44.582;2024-01-30T08:48:49;78.20;;;33.80;;
80681;SDS011;70045;40.200;44.582;2024-01-30T08:51:14;72.20;;;32.30;;
80681;SDS011;70045;40.200;44.582;2024-01-30T08:53:40;76.00;;;33.00;;
80681;SDS011;70045;40.200;44.582;2024-01-30T08:56:08;79.93;;;36.15;;
80681;SDS011;70045;40.200;44.582;2024-01-30T08:58:34;78.03;;;35.50;;
80681;SDS011;70045;40.200;44.582;2024-01-30T09:00:59;74.07;;;33.85;;
80681;SDS011;70045;40.200;44.582;2024-01-30T09:03:25;74.90;;;35.20;;
80681;SDS011;70045;40.200;44.582;2024-01-30T09:05:51;76.82;;;31.70;;
80681;SDS011;70045;40.200;44.582;2024-01-30T09:08:19;72.78;;;31.23;;
80681;SDS011;70045;40.200;44.582;2024-01-30T09:10:44;72.32;;;32.08;;
80681;SDS011;70045;40.200;44.582;2024-01-30T09:13:10;72.07;;;31.98;;
80681;SDS011;70045;40.200;44.582;2024-01-30T09:15:35;64.07;;;30.17;;
80681;SDS011;70045;40.200;44.582;2024-01-30T09:18:00;68.10;;;30.75;;
80681;SDS011;70045;40.200;44.582;2024-01-30T09:20:29;65.47;;;30.20;;
80681;SDS011;70045;40.200;44.582;2024-01-30T09:22:55;72.95;;;31.90;;
80681;SDS011;70045;40.200;44.582;2024-01-30T09:25:20;64.30;;;29.27;;
80681;SDS011;70045;40.200;44.582;2024-01-30T09:27:46;78.15;;;31.50;;
80681;SDS011;70045;40.200;44.582;2024-01-30T09:30:11;73.05;;;31.40;;
80681;SDS011;70045;40.200;44.582;2024-01-30T09:32:41;66.00;;;28.92;;
80681;SDS011;70045;40.200;44.582;2024-01-30T09:35:08;79.15;;;31.67;;
80681;SDS011;70045;40.200;44.582;2024-01-30T09:37:33;65.22;;;29.55;;
80681;SDS011;70045;40.200;44.582;2024-01-30T09:39:59;70.97;;;29.85;;
80681;SDS011;70045;40.200;44.582;2024-01-30T09:42:34;64.65;;;29.13;;
80681;SDS011;70045;40.200;44.582;2024-01-30T09:45:04;66.38;;;29.10;;
80681;SDS011;70045;40.200;44.582;2024-01-30T09:47:42;70.63;;;30.52;;
80681;SDS011;70045;40.200;44.582;2024-01-30T09:50:09;70.72;;;30.95;;
80681;SDS011;70045;40.200;44.582;2024-01-30T09:52:39;83.85;;;31.85;;
80681;SDS011;70045;40.200;44.582;2024-01-30T09:55:07;93.70;;;33.78;;
80681;SDS011;70045;40.200;44.582;2024-01-30T09:57:34;94.15;;;35.63;;
80681;SDS011;70045;40.200;44.582;2024-01-30T10:00:00;88.50;;;36.28;;
80681;SDS011;70045;40.200;44.582;2024-01-30T10:02:26;89.60;;;34.10;;
80681;SDS011;70045;40.200;44.582;2024-01-30T10:04:52;95.88;;;39.83;;
80681;SDS011;70045;40.200;44.582;2024-01-30T10:07:21;89.63;;;37.03;;
80681;SDS011;70045;40.200;44.582;2024-01-30T10:09:46;80.18;;;34.20;;
80681;SDS011;70045;40.200;44.582;2024-01-30T10:12:12;82.82;;;31.73;;
80681;SDS011;70045;40.200;44.582;2024-01-30T10:14:38;88.25;;;31.95;;
80681;SDS011;70045;40.200;44.582;2024-01-30T10:17:04;85.32;;;31.95;;
80681;SDS011;70045;40.200;44.582;2024-01-30T10:19:32;76.35;;;30.63;;
80681;SDS011;70045;40.200;44.582;2024-01-30T10:21:59;95.05;;;35.97;;
80681;SDS011;70045;40.200;44.582;2024-01-30T10:24:25;94.05;;;35.67;;
80681;SDS011;70045;40.200;44.582;2024-01-30T10:26:51;85.03;;;34.67;;
80681;SDS011;70045;40.200;44.582;2024-01-30T10:29:18;85.57;;;33.17;;
80681;SDS011;70045;40.200;44.582;2024-01-30T10:32:03;75.10;;;29.27;;
80681;SDS011;70045;40.200;44.582;2024-01-30T10:34:30;76.28;;;30.95;;
80681;SDS011;70045;40.200;44.582;2024-01-30T10:36:59;76.03;;;31.95;;
80681;SDS011;70045;40.200;44.582;2024-01-30T10:39:32;79.20;;;31.15;;
80681;SDS011;70045;40.200;44.582;2024-01-30T10:42:07;68.88;;;29.95;;
80681;SDS011;70045;40.200;44.582;2024-01-30T10:44:41;70.68;;;30.23;;
80681;SDS011;70045;40.200;44.582;2024-01-30T10:47:27;70.18;;;29.23;;
80681;SDS011;70045;40.200;44.582;2024-01-30T10:49:54;69.68;;;29.13;;
80681;SDS011;70045;40.200;44.582;2024-01-30T10:52:23;63.88;;;26.90;;
80681;SDS011;70045;40.200;44.582;2024-01-30T10:54:50;61.10;;;26.23;;
80681;SDS011;70045;40.200;44.582;2024-01-30T10:57:17;64.47;;;27.90;;
80681;SDS011;70045;40.200;44.582;2024-01-30T10:59:43;62.28;;;26.33;;
80681;SDS011;70045;40.200;44.582;2024-01-30T11:02:09;59.35;;;26.05;;
80681;SDS011;70045;40.200;44.582;2024-01-30T11:04:41;54.45;;;24.45;;
80681;SDS011;70045;40.200;44.582;2024-01-30T11:09:48;57.10;;;23.40;;
80681;SDS011;70045;40.200;44.582;2024-01-30T11:12:14;63.42;;;27.85;;
80681;SDS011;70045;40.200;44.582;2024-01-30T11:14:39;54.97;;;24.75;;
80681;SDS011;70045;40.200;44.582;2024-01-30T11:17:09;60.22;;;25.95;;
80681;SDS011;70045;40.200;44.582;2024-01-30T11:19:35;62.38;;;26.27;;
80681;SDS011;70045;40.200;44.582;2024-01-30T11:22:00;66.35;;;27.13;;
80681;SDS011;70045;40.200;44.582;2024-01-30T11:24:27;54.25;;;24.77;;
80681;SDS011;70045;40.200;44.582;2024-01-30T11:26:55;50.83;;;23.58;;
80681;SDS011;70045;40.200;44.582;2024-01-30T11:29:26;52.10;;;23.42;;
80681;SDS011;70045;40.200;44.582;2024-01-30T11:31:58;51.85;;;24.75;;
80681;SDS011;70045;40.200;44.582;2024-01-30T11:34:23;52.70;;;23.83;;
80681;SDS011;70045;40.200;44.582;2024-01-30T11:36:56;53.95;;;24.77;;
80681;SDS011;70045;40.200;44.582;2024-01-30T11:39:27;54.22;;;24.52;;
80681;SDS011;70045;40.200;44.582;2024-01-30T11:41:58;55.55;;;24.10;;
80681;SDS011;70045;40.200;44.582;2024-01-30T11:44:24;53.90;;;24.55;;
80681;SDS011;70045;40.200;44.582;2024-01-30T11:46:50;51.40;;;23.10;;
80681;SDS011;70045;40.200;44.582;2024-01-30T11:49:17;51.80;;;23.30;;
80681;SDS011;70045;40.200;44.582;2024-01-30T11:51:46;54.92;;;25.50;;
80681;SDS011;70045;40.200;44.582;2024-01-30T11:54:11;55.08;;;24.90;;
80681;SDS011;70045;40.200;44.582;2024-01-30T11:56:37;54.63;;;24.73;;
80681;SDS011;70045;40.200;44.582;2024-01-30T11:59:02;59.72;;;24.30;;
80681;SDS011;70045;40.200;44.582;2024-01-30T12:01:28;51.83;;;25.38;;
80681;SDS011;70045;40.200;44.582;2024-01-30T12:03:57;55.60;;;24.15;;
80681;SDS011;70045;40.200;44.582;2024-01-30T12:06:24;54.25;;;24.90;;
80681;SDS011;70045;40.200;44.582;2024-01-30T12:08:56;56.28;;;24.73;;
80681;SDS011;70045;40.200;44.582;2024-01-30T12:11:26;56.92;;;25.00;;
80681;SDS011;70045;40.200;44.582;2024-01-30T12:13:52;56.03;;;23.73;;
80681;SDS011;70045;40.200;44.582;2024-01-30T12:16:21;61.42;;;26.45;;
80681;SDS011;70045;40.200;44.582;2024-01-30T12:18:46;55.83;;;24.73;;
80681;SDS011;70045;40.200;44.582;2024-01-30T12:21:12;56.65;;;25.33;;
80681;SDS011;70045;40.200;44.582;2024-01-30T12:23:37;60.15;;;27.15;;
80681;SDS011;70045;40.200;44.582;2024-01-30T12:26:03;58.83;;;24.38;;
80681;SDS011;70045;40.200;44.582;2024-01-30T12:28:33;59.60;;;25.88;;
80681;SDS011;70045;40.200;44.582;2024-01-30T12:31:01;62.00;;;27.08;;
80681;SDS011;70045;40.200;44.582;2024-01-30T12:33:30;58.20;;;25.10;;
80681;SDS011;70045;40.200;44.582;2024-01-30T12:35:56;71.15;;;32.80;;
80681;SDS011;70045;40.200;44.582;2024-01-30T12:38:21;67.32;;;29.75;;
80681;SDS011;70045;40.200;44.582;2024-01-30T12:40:54;80.10;;;33.95;;
80681;SDS011;70045;40.200;44.582;2024-01-30T12:43:19;78.32;;;32.95;;
80681;SDS011;70045;40.200;44.582;2024-01-30T12:45:45;72.72;;;31.73;;
80681;SDS011;70045;40.200;44.582;2024-01-30T12:48:11;75.95;;;34.47;;
80681;SDS011;70045;40.200;44.582;2024-01-30T12:50:37;69.93;;;28.45;;
80681;SDS011;70045;40.200;44.582;2024-01-30T12:53:06;74.68;;;32.20;;
80681;SDS011;70045;40.200;44.582;2024-01-30T12:55:31;68.75;;;31.25;;
80681;SDS011;70045;40.200;44.582;2024-01-30T12:57:57;65.25;;;27.80;;
80681;SDS011;70045;40.200;44.582;2024-01-30T13:00:22;69.25;;;28.00;;
80681;SDS011;70045;40.200;44.582;2024-01-30T13:02:48;56.35;;;26.13;;
80681;SDS011;70045;40.200;44.582;2024-01-30T13:05:17;55.58;;;24.65;;
80681;SDS011;70045;40.200;44.582;2024-01-30T13:07:42;62.83;;;26.10;;
80681;SDS011;70045;40.200;44.582;2024-01-30T13:10:08;61.35;;;25.73;;
80681;SDS011;70045;40.200;44.582;2024-01-30T13:12:33;57.97;;;24.17;;
80681;SDS011;70045;40.200;44.582;2024-01-30T13:14:59;57.20;;;23.88;;
80681;SDS011;70045;40.200;44.582;2024-01-30T13:17:27;57.40;;;24.40;;
80681;SDS011;70045;40.200;44.582;2024-01-30T13:19:53;53.55;;;22.02;;
80681;SDS011;70045;40.200;44.582;2024-01-30T13:22:18;48.95;;;22.23;;
80681;SDS011;70045;40.200;44.582;2024-01-30T13:24:44;50.20;;;21.30;;
80681;SDS011;70045;40.200;44.582;2024-01-30T13:27:10;52.05;;;22.08;;
80681;SDS011;70045;40.200;44.582;2024-01-30T13:29:38;49.25;;;22.33;;
80681;SDS011;70045;40.200;44.582;2024-01-30T13:32:12;53.20;;;23.58;;
80681;SDS011;70045;40.200;44.582;2024-01-30T13:34:38;56.40;;;22.88;;
80681;SDS011;70045;40.200;44.582;2024-01-30T13:37:03;48.95;;;21.20;;
80681;SDS011;70045;40.200;44.582;2024-01-30T13:39:29;48.85;;;21.08;;
80681;SDS011;70045;40.200;44.582;2024-01-30T13:41:58;46.78;;;20.38;;
80681;SDS011;70045;40.200;44.582;2024-01-30T13:44:23;51.00;;;21.40;;
80681;SDS011;70045;40.200;44.582;2024-01-30T13:46:48;53.03;;;21.70;;
80681;SDS011;70045;40.200;44.582;2024-01-30T13:49:14;51.83;;;22.15;;
80681;SDS011;70045;40.200;44.582;2024-01-30T13:51:47;45.65;;;20.33;;
80681;SDS011;70045;40.200;44.582;2024-01-30T13:54:15;42.75;;;18.65;;
80681;SDS011;70045;40.200;44.582;2024-01-30T13:56:40;48.75;;;19.42;;
80681;SDS011;70045;40.200;44.582;2024-01-30T13:59:06;43.83;;;20.00;;
80681;SDS011;70045;40.200;44.582;2024-01-30T14:01:31;47.22;;;18.52;;
80681;SDS011;70045;40.200;44.582;2024-01-30T14:03:57;42.30;;;18.27;;
80681;SDS011;70045;40.200;44.582;2024-01-30T14:06:25;42.47;;;18.05;;
80681;SDS011;70045;40.200;44.582;2024-01-30T14:08:51;47.03;;;18.27;;